Accueil
METAR-TAF:

METAR-TAF

Aéroports :

Middle Wallop, Angleterre

Army Air Corps Middle Wallop

latitude: 51-09N, longitude: 001-34W, altitude: 91 m

Observation

Le bulletin a été fait il y a 1 heure et 9 minutes, à 07:50 UTC
Vent 6 kt de ouest/nord-ouest
Température 5°C
Humidité 70%
Pression 1021 hPa
Visibilité 10 km ou plus
Quelques nuages à une hauteur de 4700 ft
Nuages épars à une hauteur de 19000 ft

METAR: EGVP 270750Z 29006KT 9999 FEW047 SCT190 05/M00 Q1021 BLU NOSIG

Heure: 09:59 (08:59 UTC)

Prévision

Le bulletin a été fait il y a 1 heure et 10 minutes, à 07:49 UTC
Prévision valable du 27 à 09 UTC au 27 à 18 UTC
Vent 10 kt de ouest/nord-ouest
Visibilité 10 km ou plus
Quelques nuages à une hauteur de 3000 ft
Probabilité 40% :
Temporairement
du 27 à 15 UTC au 27 à 18 UTC
Visibilité: 7000 m
Nuages épars à une hauteur de 2000 ft
pluie faible

TAF: EGVP 270749Z 2709/2718 30010KT 9999 FEW030 PROB40 TEMPO 2715/2718 7000 -RA SCT020

Observations et prévisions météorologiques de plus de 4000 aéroports (messages METAR et TAF).

Les stations disponibles sont représentées par des disques jaunes et rouges sur la carte.

Passer la souris dessus pour voir le nom de la station.

Cliquer dessus pour voir les observations et prévisions météorologiques.

Pour changer de carte: cliquez sur les boutons verts avec une croix noire pour zoomer, sur le bouton vert avec un tiret pour effectuer un zoom arrière, ou sur les flèches vertes pour les cartes adjacentes.


METAR-TAF: